Time;durP1;ratioP1;P1;durP2;ratioP2;P2;SDS_P1;SDS_P2;PMS_P1;PMS_P2;Temp;Humidity;BMP_temperature;BMP_pressure;BME280_temperature;BME280_humidity;BME280_pressure;Samples;Min_cycle;Max_cycle;Signal;HPM_P1;HPM_P2
2022/05/03 00:02:18;;;;;;;14.87;7.30;;;9.00;99.90;;;;;;4424916;28;655390;-66
2022/05/03 00:05:08;;;;;;;11.07;6.83;;;8.90;99.90;;;;;;4429748;28;655320;-66
2022/05/03 00:07:58;;;;;;;11.38;6.82;;;8.80;99.90;;;;;;4421952;28;655575;-66
2022/05/03 00:10:51;;;;;;;16.07;6.70;;;8.70;99.90;;;;;;4427730;28;655213;-66
2022/05/03 00:13:43;;;;;;;11.40;6.90;;;8.70;99.90;;;;;;4422620;28;657263;-66
2022/05/03 00:16:31;;;;;;;13.77;7.10;;;8.70;99.90;;;;;;4395243;28;656400;-66
2022/05/03 00:19:18;;;;;;;12.53;6.63;;;8.60;99.90;;;;;;4450472;28;657034;-66
2022/05/03 00:22:05;;;;;;;11.43;6.33;;;8.60;99.90;;;;;;4434343;28;655422;-66
2022/05/03 00:24:54;;;;;;;12.73;7.20;;;8.50;99.90;;;;;;4453566;28;655495;-66
2022/05/03 00:27:41;;;;;;;16.30;6.63;;;8.60;99.90;;;;;;4424975;28;656250;-66
2022/05/03 00:30:30;;;;;;;9.97;6.77;;;8.50;99.90;;;;;;4450868;28;656174;-66
2022/05/03 00:33:18;;;;;;;13.47;6.80;;;8.40;99.90;;;;;;4423987;28;655508;-66
2022/05/03 00:36:05;;;;;;;15.37;6.90;;;8.30;99.90;;;;;;4425248;28;655816;-66
2022/05/03 00:38:53;;;;;;;10.47;6.37;;;8.20;99.90;;;;;;4440852;28;656863;-66
2022/05/03 00:41:44;;;;;;;11.25;7.15;;;8.20;99.90;;;;;;4431648;28;655971;-66
2022/05/03 00:47:53;;;;;;;10.93;6.60;;;8.20;99.90;;;;;;4350838;28;656001;-66
2022/05/03 00:50:41;;;;;;;9.18;6.43;;;8.20;99.90;;;;;;4397676;28;656815;-66
2022/05/03 00:53:31;;;;;;;11.23;6.80;;;8.20;99.90;;;;;;4453276;28;654897;-66
2022/05/03 00:56:31;;;;;;;9.03;6.80;;;8.20;99.90;;;;;;4423558;28;655868;-66
2022/05/03 00:59:24;;;;;;;14.20;7.20;;;8.10;99.90;;;;;;4428883;28;654779;-66
2022/05/03 01:02:11;;;;;;;11.17;6.80;;;8.10;99.90;;;;;;4425674;28;655574;-66
2022/05/03 01:05:09;;;;;;;11.43;6.63;;;8.20;99.90;;;;;;4442851;28;657134;-66
2022/05/03 01:08:04;;;;;;;10.97;6.50;;;8.20;99.90;;;;;;4428649;28;656019;-66
2022/05/03 01:10:56;;;;;;;24.00;7.37;;;8.40;99.90;;;;;;4403185;28;656449;-66
2022/05/03 01:13:46;;;;;;;9.00;6.03;;;8.40;99.90;;;;;;4422027;28;656168;-66
2022/05/03 01:16:36;;;;;;;9.83;6.43;;;8.50;99.90;;;;;;4431732;28;654717;-66
2022/05/03 01:19:34;;;;;;;12.10;6.50;;;8.60;99.90;;;;;;4426687;28;654791;-66
2022/05/03 01:22:44;;;;;;;10.93;7.00;;;8.70;99.90;;;;;;4423890;28;655983;-65
2022/05/03 01:25:47;;;;;;;11.17;7.03;;;8.70;99.90;;;;;;4426936;28;655251;-66
2022/05/03 01:28:50;;;;;;;14.53;8.90;;;8.80;99.90;;;;;;4428483;28;655252;-66
2022/05/03 01:31:38;;;;;;;14.27;9.07;;;8.90;99.90;;;;;;4404585;28;656126;-66
2022/05/03 01:34:26;;;;;;;17.60;10.07;;;9.10;99.90;;;;;;4442723;28;656109;-66
2022/05/03 01:37:39;;;;;;;32.13;18.17;;;9.10;99.90;;;;;;4444734;28;656357;-66
2022/05/03 01:40:32;;;;;;;15.83;10.50;;;9.40;99.90;;;;;;4427778;28;656917;-66
2022/05/03 01:43:26;;;;;;;19.93;11.67;;;8.90;99.90;;;;;;4446573;28;658368;-66
2022/05/03 01:46:16;;;;;;;23.53;12.97;;;8.80;99.90;;;;;;4420996;28;658250;-66
2022/05/03 01:52:37;;;;;;;28.37;16.53;;;8.80;99.90;;;;;;4441055;28;656868;-66
2022/05/03 01:55:41;;;;;;;35.40;19.03;;;8.90;99.90;;;;;;4421779;28;656983;-66
2022/05/03 01:58:33;;;;;;;31.17;18.00;;;8.90;99.90;;;;;;4424377;28;656722;-66
2022/05/03 02:01:25;;;;;;;31.00;16.97;;;8.80;99.90;;;;;;4406678;28;656865;-66
2022/05/03 02:04:20;;;;;;;30.37;18.27;;;8.50;99.90;;;;;;4425366;28;657049;-66
2022/05/03 02:07:08;;;;;;;32.07;19.07;;;8.50;99.90;;;;;;4404287;28;657077;-66
2022/05/03 02:10:03;;;;;;;42.15;23.13;;;8.30;99.90;;;;;;4427288;28;656891;-66
2022/05/03 02:12:53;;;;;;;32.07;20.37;;;8.30;99.90;;;;;;4405079;28;656847;-66
2022/05/03 02:15:40;;;;;;;30.03;17.73;;;8.30;99.90;;;;;;4426991;28;656567;-66
2022/05/03 02:18:34;;;;;;;37.40;20.70;;;8.20;99.90;;;;;;4451417;28;657934;-66
2022/05/03 02:21:22;;;;;;;37.07;20.97;;;8.10;99.90;;;;;;4425963;28;658891;-66
2022/05/03 02:24:11;;;;;;;39.57;21.97;;;8.00;99.90;;;;;;4441432;28;657774;-66
2022/05/03 02:27:03;;;;;;;38.93;22.13;;;8.00;99.90;;;;;;4427104;28;658337;-66
2022/05/03 02:29:50;;;;;;;40.63;22.93;;;8.00;99.90;;;;;;4412818;28;658016;-66
2022/05/03 02:32:43;;;;;;;38.50;22.03;;;8.00;99.90;;;;;;4448349;28;658343;-66
2022/05/03 02:35:34;;;;;;;38.77;21.57;;;7.90;99.90;;;;;;4403727;28;657382;-65
2022/05/03 02:38:25;;;;;;;37.47;21.03;;;7.90;99.90;;;;;;4423367;28;657332;-66
2022/05/03 02:41:12;;;;;;;44.00;22.83;;;7.80;99.90;;;;;;4428281;28;658530;-65
2022/05/03 02:44:00;;;;;;;43.47;23.30;;;7.80;99.90;;;;;;4441432;28;657576;-66
2022/05/03 02:46:55;;;;;;;44.30;22.97;;;7.80;99.90;;;;;;4439493;28;658936;-66
2022/05/03 02:50:03;;;;;;;38.90;22.03;;;7.80;99.90;;;;;;4428888;28;657933;-66
2022/05/03 02:52:57;;;;;;;35.25;20.30;;;7.70;99.90;;;;;;4429344;28;658397;-66
2022/05/03 02:55:49;;;;;;;38.43;22.17;;;7.60;99.90;;;;;;4412889;28;658103;-66
2022/05/03 02:58:43;;;;;;;40.93;21.27;;;7.60;99.90;;;;;;4425159;28;657537;-66
2022/05/03 03:01:47;;;;;;;38.27;23.30;;;7.60;99.90;;;;;;4408152;28;657393;-66
2022/05/03 03:04:37;;;;;;;41.65;25.30;;;7.70;99.90;;;;;;4416400;28;657928;-65
2022/05/03 03:07:24;;;;;;;44.53;25.23;;;7.80;99.90;;;;;;4442773;28;657854;-65
2022/05/03 03:10:15;;;;;;;38.13;22.67;;;7.90;99.90;;;;;;4427175;28;658052;-65
2022/05/03 03:13:06;;;;;;;39.07;23.40;;;7.90;99.90;;;;;;4426776;28;657965;-65
2022/05/03 03:15:54;;;;;;;45.77;24.13;;;8.00;99.90;;;;;;4423477;28;658670;-65
2022/05/03 03:18:43;;;;;;;44.80;24.13;;;7.90;99.90;;;;;;4418534;28;657797;-65
2022/05/03 03:21:32;;;;;;;47.37;26.77;;;8.00;99.90;;;;;;4435433;28;657559;-65
2022/05/03 03:24:20;;;;;;;47.60;27.47;;;8.00;99.90;;;;;;4447963;28;658185;-65
2022/05/03 03:27:10;;;;;;;45.67;26.70;;;8.10;99.90;;;;;;4456363;28;657760;-65
2022/05/03 03:29:57;;;;;;;41.63;25.57;;;7.90;99.90;;;;;;4428630;28;658556;-66
2022/05/03 03:32:46;;;;;;;51.07;27.00;;;7.90;99.90;;;;;;4445550;28;657284;-65
2022/05/03 03:35:34;;;;;;;51.60;27.73;;;7.90;99.90;;;;;;4421233;28;658546;-65
2022/05/03 03:38:21;;;;;;;39.00;24.17;;;8.00;99.90;;;;;;4414149;28;657258;-65
2022/05/03 03:41:08;;;;;;;45.90;25.43;;;8.10;99.90;;;;;;4454874;28;659030;-65
2022/05/03 03:43:57;;;;;;;39.00;22.90;;;8.10;99.90;;;;;;4427790;28;657832;-65
2022/05/03 03:46:44;;;;;;;54.73;29.00;;;8.10;99.90;;;;;;4442217;28;657205;-65
2022/05/03 03:49:31;;;;;;;52.63;29.63;;;8.30;99.90;;;;;;4421586;28;657266;-65
2022/05/03 03:52:18;;;;;;;51.37;29.17;;;8.50;99.90;;;;;;4446127;28;657460;-65
2022/05/03 03:55:07;;;;;;;43.33;26.07;;;8.60;99.90;;;;;;4416400;28;658618;-65
2022/05/03 03:57:54;;;;;;;45.60;25.57;;;8.60;99.90;;;;;;4451065;28;657512;-65
2022/05/03 04:00:43;;;;;;;47.13;27.67;;;8.50;99.90;;;;;;4436874;28;657650;-65
2022/05/03 04:03:31;;;;;;;54.00;27.77;;;8.60;99.90;;;;;;4442101;28;657530;-65
2022/05/03 04:06:18;;;;;;;41.17;25.00;;;8.60;99.90;;;;;;4444405;28;657168;-65
2022/05/03 04:09:05;;;;;;;46.77;27.07;;;8.60;99.90;;;;;;4423705;28;657509;-65
2022/05/03 04:11:53;;;;;;;51.57;27.77;;;8.70;99.90;;;;;;4439269;28;658612;-65
2022/05/03 04:14:41;;;;;;;52.08;29.70;;;8.80;99.90;;;;;;4432341;28;657695;-65
2022/05/03 04:17:30;;;;;;;48.73;28.90;;;9.00;99.90;;;;;;4447565;28;658924;-65
2022/05/03 04:20:18;;;;;;;56.50;33.70;;;9.20;99.90;;;;;;4428506;28;657995;-65
2022/05/03 04:23:05;;;;;;;51.40;31.27;;;9.30;99.90;;;;;;4428376;28;657708;-66
2022/05/03 04:25:52;;;;;;;52.30;29.27;;;9.60;99.90;;;;;;4445298;28;657445;-65
2022/05/03 04:28:40;;;;;;;46.43;27.30;;;9.70;99.90;;;;;;4455585;28;657559;-65
2022/05/03 04:31:27;;;;;;;50.23;27.23;;;9.60;99.90;;;;;;4421463;28;659197;-65
2022/05/03 04:34:16;;;;;;;58.77;35.33;;;9.60;99.90;;;;;;4452601;28;657625;-65
2022/05/03 04:37:03;;;;;;;64.00;35.50;;;9.90;99.90;;;;;;4422433;28;658381;-65
2022/05/03 04:39:51;;;;;;;61.10;35.80;;;10.10;99.90;;;;;;4423328;28;657703;-66
2022/05/03 04:42:38;;;;;;;61.03;35.57;;;10.30;99.90;;;;;;4446459;28;659637;-65
2022/05/03 04:45:25;;;;;;;58.27;34.80;;;10.30;99.90;;;;;;4425520;28;659366;-65
2022/05/03 04:48:12;;;;;;;58.77;33.73;;;10.40;99.90;;;;;;4432743;28;659313;-65
2022/05/03 04:51:02;;;;;;;62.10;34.57;;;10.50;99.90;;;;;;4437481;28;658536;-65
2022/05/03 04:53:49;;;;;;;60.07;34.37;;;10.50;99.90;;;;;;4441968;28;660263;-65
2022/05/03 04:56:36;;;;;;;62.83;34.33;;;10.60;99.90;;;;;;4417677;28;659530;-66
2022/05/03 04:59:23;;;;;;;60.07;34.33;;;10.60;99.90;;;;;;4437449;28;660165;-65
2022/05/03 05:02:10;;;;;;;59.60;33.07;;;10.60;99.90;;;;;;4421381;28;658744;-66
2022/05/03 05:04:58;;;;;;;60.70;33.50;;;10.60;99.90;;;;;;4438381;28;659864;-65
2022/05/03 05:07:47;;;;;;;61.80;33.60;;;10.70;99.90;;;;;;4433668;28;658667;-65
2022/05/03 05:10:34;;;;;;;59.87;34.27;;;10.70;99.90;;;;;;4436712;28;660394;-66
2022/05/03 05:13:21;;;;;;;58.53;33.23;;;10.90;99.90;;;;;;4424287;28;658850;-65
2022/05/03 05:16:08;;;;;;;56.93;33.43;;;11.00;99.90;;;;;;4440988;28;659671;-66
2022/05/03 05:18:56;;;;;;;55.27;32.80;;;11.20;99.90;;;;;;4416767;28;659114;-65
2022/05/03 05:21:43;;;;;;;51.47;31.57;;;11.30;99.90;;;;;;4436927;28;659660;-66
2022/05/03 05:24:31;;;;;;;55.47;32.70;;;11.50;99.90;;;;;;4422904;28;658548;-66
2022/05/03 05:27:19;;;;;;;58.40;32.67;;;11.60;99.90;;;;;;4442039;28;660655;-65
2022/05/03 05:30:07;;;;;;;53.43;31.40;;;11.80;99.90;;;;;;4417741;28;658499;-65
2022/05/03 05:32:54;;;;;;;56.77;33.67;;;11.90;99.90;;;;;;4433366;28;658796;-66
2022/05/03 05:35:41;;;;;;;62.33;34.20;;;12.00;99.90;;;;;;4419082;28;658560;-65
2022/05/03 05:38:28;;;;;;;57.80;31.73;;;12.00;99.90;;;;;;4440923;28;660047;-65
2022/05/03 05:41:17;;;;;;;54.43;32.87;;;11.90;99.90;;;;;;4417086;28;660122;-65
2022/05/03 05:44:04;;;;;;;56.70;32.20;;;12.00;99.90;;;;;;4439784;28;658893;-65
2022/05/03 05:46:53;;;;;;;59.30;32.73;;;12.10;99.90;;;;;;4418343;28;658661;-65
2022/05/03 05:49:40;;;;;;;58.90;31.80;;;12.20;99.90;;;;;;4424375;28;658602;-65
2022/05/03 05:55:32;;;;;;;58.87;35.57;;;12.20;99.90;;;;;;4395962;28;658661;-66
2022/05/03 05:58:20;;;;;;;55.93;31.73;;;12.40;99.90;;;;;;4439237;28;659012;-65
2022/05/03 06:01:08;;;;;;;64.60;33.97;;;12.40;99.90;;;;;;4413761;28;660179;-65
2022/05/03 06:03:55;;;;;;;54.90;33.00;;;12.60;99.90;;;;;;4429317;28;659120;-65
2022/05/03 06:06:42;;;;;;;56.70;34.33;;;12.60;99.90;;;;;;4439593;28;659445;-66
2022/05/03 06:09:29;;;;;;;55.03;32.87;;;12.60;99.90;;;;;;4442225;28;658453;-65
2022/05/03 06:12:17;;;;;;;57.33;32.03;;;12.70;99.90;;;;;;4417860;28;658650;-65
2022/05/03 06:15:07;;;;;;;53.47;31.90;;;12.60;99.90;;;;;;4439035;28;658393;-65
2022/05/03 06:17:54;;;;;;;54.30;30.37;;;12.70;99.90;;;;;;4422477;28;659091;-65
2022/05/03 06:20:41;;;;;;;53.03;29.63;;;12.80;99.90;;;;;;4432045;28;659012;-66
2022/05/03 06:23:28;;;;;;;55.70;30.17;;;12.90;99.90;;;;;;4444350;28;659385;-66
2022/05/03 06:26:15;;;;;;;51.57;28.60;;;13.00;99.90;;;;;;4430539;28;658715;-66
2022/05/03 06:29:02;;;;;;;47.40;27.87;;;13.40;99.90;;;;;;4439787;28;660310;-65
2022/05/03 06:31:51;;;;;;;43.00;24.07;;;13.90;99.90;;;;;;4426704;28;659147;-66
2022/05/03 06:34:39;;;;;;;42.40;24.33;;;14.10;99.90;;;;;;4438408;28;659128;-65
2022/05/03 06:37:26;;;;;;;41.27;22.87;;;14.40;99.90;;;;;;4414655;28;658448;-66
2022/05/03 06:40:13;;;;;;;41.37;22.60;;;14.60;96.90;;;;;;4447136;28;659268;-66
2022/05/03 06:43:00;;;;;;;39.07;21.40;;;14.80;97.60;;;;;;4425737;28;658755;-66
2022/05/03 06:45:48;;;;;;;33.40;16.87;;;15.20;99.90;;;;;;4443682;28;660243;-66
2022/05/03 06:48:37;;;;;;;30.23;16.50;;;15.50;81.50;;;;;;4423571;28;659084;-66
2022/05/03 06:51:24;;;;;;;22.97;14.37;;;15.90;70.10;;;;;;4447236;28;658912;-66
2022/05/03 06:54:11;;;;;;;19.17;13.00;;;16.00;67.10;;;;;;4428397;28;658673;-66
2022/05/03 06:56:59;;;;;;;28.63;15.03;;;16.30;73.90;;;;;;4436379;28;659446;-66
2022/05/03 06:59:46;;;;;;;25.70;14.97;;;16.70;84.10;;;;;;4426147;28;658641;-66
2022/05/03 07:02:34;;;;;;;26.20;14.40;;;16.50;68.00;;;;;;4440745;28;659759;-66
2022/05/03 07:05:23;;;;;;;23.27;12.53;;;16.50;69.70;;;;;;4411172;28;659898;-66
2022/05/03 07:08:10;;;;;;;28.30;16.07;;;16.60;67.30;;;;;;4437904;28;658691;-66
2022/05/03 07:10:58;;;;;;;32.40;16.80;;;16.20;68.60;;;;;;4444403;28;659973;-66
2022/05/03 07:13:45;;;;;;;37.33;19.27;;;16.30;73.00;;;;;;4438399;28;658381;-66
2022/05/03 07:16:32;;;;;;;34.40;20.50;;;16.00;81.00;;;;;;4449001;28;659653;-66
2022/05/03 07:25:31;;;;;;;33.70;17.37;;;16.40;80.30;;;;;;4411917;28;660191;-66
2022/05/03 07:28:19;;;;;;;29.13;16.77;;;16.60;73.70;;;;;;4451778;28;659803;-66
2022/05/03 07:31:06;;;;;;;30.57;16.30;;;16.50;69.20;;;;;;4421916;28;658967;-66
2022/05/03 07:33:53;;;;;;;25.27;14.70;;;16.50;65.00;;;;;;4448290;28;658882;-66
2022/05/03 07:36:40;;;;;;;25.00;14.00;;;16.70;59.20;;;;;;4427416;28;658862;-67
2022/05/03 07:39:30;;;;;;;23.23;14.60;;;16.50;57.40;;;;;;4449699;28;659708;-66
2022/05/03 07:42:17;;;;;;;26.10;14.70;;;16.20;58.00;;;;;;4422742;28;659368;-66
2022/05/03 07:45:05;;;;;;;27.53;14.57;;;16.70;59.20;;;;;;4450133;28;658562;-66
2022/05/03 07:47:52;;;;;;;25.67;16.00;;;17.40;62.90;;;;;;4424092;28;659270;-66
2022/05/03 07:50:40;;;;;;;21.67;13.23;;;17.40;57.20;;;;;;4452221;28;658734;-66
2022/05/03 07:53:27;;;;;;;22.83;12.23;;;17.50;62.00;;;;;;4452501;28;659351;-66
2022/05/03 07:56:16;;;;;;;21.00;12.13;;;17.20;57.30;;;;;;4445070;28;659377;-66
2022/05/03 07:59:06;;;;;;;18.17;10.40;;;17.80;53.70;;;;;;4421442;28;659352;-66
2022/05/03 08:01:54;;;;;;;15.97;9.70;;;18.10;50.80;;;;;;4428057;28;659990;-66
2022/05/03 08:04:42;;;;;;;19.23;11.57;;;18.30;47.50;;;;;;4428376;28;657948;-66
2022/05/03 08:07:29;;;;;;;23.33;11.93;;;18.40;48.20;;;;;;4448266;28;658094;-67
2022/05/03 08:10:16;;;;;;;21.90;10.57;;;18.80;48.80;;;;;;4425127;28;659535;-66
2022/05/03 08:13:05;;;;;;;12.07;6.63;;;18.10;50.60;;;;;;4450892;28;658912;-66
2022/05/03 08:15:52;;;;;;;20.83;9.67;;;17.50;45.20;;;;;;4415635;28;658556;-66
2022/05/03 08:18:39;;;;;;;21.20;11.53;;;17.40;48.40;;;;;;4454509;28;658213;-66
2022/05/03 08:21:27;;;;;;;23.83;11.33;;;17.70;51.10;;;;;;4430424;28;659954;-66
2022/05/03 08:24:14;;;;;;;24.70;12.73;;;17.50;48.80;;;;;;4451899;28;658614;-66
2022/05/03 08:27:02;;;;;;;48.43;12.57;;;17.60;50.80;;;;;;4419960;28;659544;-66
2022/05/03 08:29:51;;;;;;;22.10;13.40;;;18.00;52.10;;;;;;4435875;28;658486;-66
2022/05/03 08:32:42;;;;;;;27.73;14.10;;;17.80;53.30;;;;;;4443232;28;658839;-66
2022/05/03 08:35:29;;;;;;;22.40;13.53;;;17.90;53.10;;;;;;4427403;28;658480;-65
2022/05/03 08:44:26;;;;;;;28.90;12.40;;;17.80;52.30;;;;;;4403842;28;659169;-67
2022/05/03 08:47:15;;;;;;;22.07;12.70;;;18.60;54.40;;;;;;4449778;28;660174;-66
2022/05/03 08:50:04;;;;;;;24.30;13.07;;;18.40;52.30;;;;;;4423365;28;660013;-66
2022/05/03 08:52:54;;;;;;;25.33;11.03;;;17.90;53.50;;;;;;4428295;28;658736;-66
2022/05/03 08:55:41;;;;;;;30.67;15.03;;;17.70;51.40;;;;;;4423135;28;658701;-65
2022/05/03 08:58:28;;;;;;;23.87;14.47;;;18.00;54.60;;;;;;4437530;28;659729;-66
2022/05/03 09:01:16;;;;;;;30.40;18.63;;;18.40;55.10;;;;;;4431078;28;659396;-66
2022/05/03 09:04:06;;;;;;;27.67;14.33;;;18.30;57.70;;;;;;4448737;28;659638;-66
2022/05/03 09:06:53;;;;;;;27.33;13.13;;;19.20;53.00;;;;;;4423918;28;659943;-66
2022/05/03 09:09:40;;;;;;;27.37;15.47;;;19.60;52.80;;;;;;4434155;28;659024;-66
2022/05/03 09:12:28;;;;;;;30.40;16.40;;;19.50;51.80;;;;;;4454762;28;660357;-66
2022/05/03 09:15:16;;;;;;;31.40;18.27;;;19.20;52.60;;;;;;4416747;28;658970;-67
2022/05/03 09:18:03;;;;;;;30.70;15.33;;;18.90;53.40;;;;;;4441324;28;660250;-66
2022/05/03 09:24:01;;;;;;;27.43;14.43;;;19.00;51.50;;;;;;4423828;28;658606;-66
2022/05/03 09:26:48;;;;;;;23.47;12.50;;;20.10;49.70;;;;;;4417202;28;660428;-66
2022/05/03 09:29:36;;;;;;;19.40;12.07;;;19.90;48.70;;;;;;4421573;28;659078;-66
2022/05/03 09:32:34;;;;;;;26.50;13.30;;;20.00;47.40;;;;;;4448003;28;659340;-66
2022/05/03 09:35:31;;;;;;;20.57;11.60;;;19.80;48.30;;;;;;4393173;28;659095;-66
2022/05/03 09:38:20;;;;;;;25.23;12.67;;;19.20;46.50;;;;;;4417201;28;659412;-67
2022/05/03 09:41:12;;;;;;;23.67;13.10;;;19.10;46.40;;;;;;4411112;28;660539;-67
2022/05/03 09:44:06;;;;;;;16.93;9.53;;;18.90;49.70;;;;;;4428707;28;659133;-67
2022/05/03 09:46:53;;;;;;;18.93;10.07;;;19.10;49.50;;;;;;4419213;28;657629;-66
2022/05/03 09:49:42;;;;;;;16.80;8.80;;;19.00;46.40;;;;;;4428771;28;658456;-66
2022/05/03 09:52:30;;;;;;;16.73;10.43;;;19.00;45.40;;;;;;4451692;28;657459;-66
2022/05/03 09:55:26;;;;;;;20.53;12.17;;;19.00;46.10;;;;;;4418147;28;659495;-66
2022/05/03 09:58:14;;;;;;;24.00;13.00;;;19.00;47.10;;;;;;4413238;28;658749;-66
2022/05/03 10:01:01;;;;;;;26.53;13.10;;;18.70;46.60;;;;;;4423676;28;658928;-66
2022/05/03 10:03:49;;;;;;;18.63;10.97;;;19.20;50.30;;;;;;4444109;28;659913;-66
2022/05/03 10:06:36;;;;;;;21.43;11.87;;;19.00;45.80;;;;;;4426819;28;658840;-66
2022/05/03 10:09:23;;;;;;;19.67;10.27;;;19.00;45.40;;;;;;4439899;28;660018;-66
2022/05/03 10:12:13;;;;;;;21.50;12.13;;;18.90;45.00;;;;;;4429910;28;658386;-66
2022/05/03 10:15:01;;;;;;;23.83;11.20;;;19.10;47.70;;;;;;4425289;28;659197;-66
2022/05/03 10:20:56;;;;;;;19.30;9.30;;;19.50;44.80;;;;;;4428853;28;658825;-66
2022/05/03 10:23:44;;;;;;;40.23;13.67;;;19.50;44.30;;;;;;4421572;28;658299;-67
2022/05/03 10:26:54;;;;;;;26.63;13.10;;;20.60;45.80;;;;;;4429238;28;659315;-67
2022/05/03 10:29:43;;;;;;;25.73;14.40;;;21.30;44.30;;;;;;4403360;28;658942;-66
2022/05/03 10:32:30;;;;;;;25.80;13.00;;;21.60;42.80;;;;;;4432462;28;658119;-66
2022/05/03 10:35:33;;;;;;;23.77;13.07;;;20.30;41.70;;;;;;4451668;28;659440;-66
2022/05/03 10:38:35;;;;;;;23.73;12.67;;;19.10;43.70;;;;;;4397380;28;658414;-66
2022/05/03 10:41:24;;;;;;;21.47;11.90;;;19.00;45.40;;;;;;4395047;28;659432;-66
2022/05/03 10:44:38;;;;;;;19.57;10.63;;;19.30;45.70;;;;;;4420869;28;659388;-66
2022/05/03 10:47:47;;;;;;;17.63;10.57;;;19.20;43.40;;;;;;4399830;28;659002;-66
2022/05/03 10:50:36;;;;;;;17.50;9.70;;;19.20;43.10;;;;;;4410881;28;659994;-66
2022/05/03 10:53:25;;;;;;;15.17;8.73;;;19.20;42.80;;;;;;4440713;28;657735;-66
2022/05/03 10:56:20;;;;;;;18.10;9.63;;;19.30;41.70;;;;;;4420044;28;659324;-66
2022/05/03 10:59:10;;;;;;;93.87;47.60;;;19.40;42.60;;;;;;4390954;28;657686;-66
2022/05/03 11:02:08;;;;;;;450.67;296.67;;;21.20;44.00;;;;;;4418714;28;660259;-66
2022/05/03 11:05:18;;;;;;;45.03;19.17;;;21.60;42.10;;;;;;4396953;28;661359;-66
2022/05/03 11:08:16;;;;;;;42.50;13.87;;;21.50;38.00;;;;;;4393075;28;658981;-66
2022/05/03 11:11:03;;;;;;;18.30;9.40;;;21.10;41.10;;;;;;4424359;28;658624;-66
2022/05/03 11:13:50;;;;;;;18.00;9.87;;;21.30;42.70;;;;;;4427005;28;657826;-66
2022/05/03 11:16:37;;;;;;;22.03;14.63;;;21.30;41.20;;;;;;4451871;28;657854;-66
2022/05/03 11:19:25;;;;;;;23.43;14.67;;;20.60;42.10;;;;;;4445959;28;659998;-66
2022/05/03 11:22:15;;;;;;;17.83;8.90;;;20.00;42.80;;;;;;4451022;28;658759;-66
2022/05/03 11:25:12;;;;;;;19.70;7.77;;;19.70;45.90;;;;;;4419153;28;658711;-66
2022/05/03 11:28:00;;;;;;;15.63;7.33;;;20.20;46.10;;;;;;4415479;28;657664;-66
2022/05/03 11:30:48;;;;;;;13.97;7.80;;;19.80;44.80;;;;;;4435060;28;658642;-66
2022/05/03 11:33:49;;;;;;;12.77;7.53;;;19.80;46.50;;;;;;4425706;28;657766;-66
2022/05/03 11:36:38;;;;;;;20.27;7.80;;;20.30;44.00;;;;;;4421789;28;657537;-66
2022/05/03 11:39:26;;;;;;;14.67;7.77;;;20.90;45.50;;;;;;4439861;28;658436;-66
2022/05/03 11:42:14;;;;;;;17.77;8.27;;;21.30;47.70;;;;;;4445263;28;657288;-66
2022/05/03 11:45:02;;;;;;;94.27;58.20;;;21.30;45.70;;;;;;4424841;28;658554;-66
2022/05/03 11:47:50;;;;;;;53.90;33.40;;;22.00;42.00;;;;;;4437453;28;659543;-66
2022/05/03 11:56:48;;;;;;;67.27;44.90;;;21.70;45.10;;;;;;4419016;28;660145;-66
2022/05/03 11:59:35;;;;;;;24.47;12.60;;;20.70;45.60;;;;;;4426213;28;659257;-66
2022/05/03 12:02:24;;;;;;;19.63;11.80;;;21.50;45.80;;;;;;4440682;28;659913;-66
2022/05/03 12:05:15;;;;;;;26.10;13.27;;;21.30;45.20;;;;;;4421633;28;659251;-66
2022/05/03 12:08:03;;;;;;;35.93;18.73;;;21.30;44.60;;;;;;4419251;28;659769;-66
2022/05/03 12:10:51;;;;;;;16.47;10.40;;;21.90;46.80;;;;;;4429378;28;658804;-66
2022/05/03 12:13:39;;;;;;;39.30;21.37;;;22.60;43.70;;;;;;4446341;28;659382;-66
2022/05/03 12:16:28;;;;;;;14.17;8.20;;;21.20;41.00;;;;;;4420824;28;658781;-66
2022/05/03 12:19:20;;;;;;;11.30;6.93;;;21.30;41.90;;;;;;4430066;28;657629;-67
2022/05/03 12:22:12;;;;;;;11.47;6.97;;;20.60;44.70;;;;;;4430182;28;658740;-66
2022/05/03 12:24:59;;;;;;;12.47;7.93;;;20.60;43.50;;;;;;4422024;28;657701;-67
2022/05/03 12:27:48;;;;;;;22.30;7.40;;;21.60;43.90;;;;;;4430966;28;657894;-67
2022/05/03 12:30:37;;;;;;;13.13;8.67;;;21.50;42.20;;;;;;4428234;28;658060;-67
2022/05/03 12:33:27;;;;;;;10.77;7.20;;;20.70;41.00;;;;;;4444753;28;657986;-66
2022/05/03 12:36:30;;;;;;;16.70;8.80;;;20.70;40.70;;;;;;4420523;28;657833;-66
2022/05/03 12:39:18;;;;;;;13.90;6.70;;;21.40;41.90;;;;;;4391818;28;657977;-66
2022/05/03 12:42:10;;;;;;;14.40;7.37;;;21.90;38.50;;;;;;4430735;28;657690;-67
2022/05/03 12:44:59;;;;;;;17.43;7.97;;;22.50;37.00;;;;;;4428324;28;657975;-67
2022/05/03 12:47:48;;;;;;;15.40;7.17;;;22.40;38.80;;;;;;4426599;28;657399;-66
2022/05/03 12:50:35;;;;;;;15.10;6.47;;;23.00;39.40;;;;;;4430704;28;657370;-66
2022/05/03 12:53:26;;;;;;;9.17;6.20;;;23.00;40.10;;;;;;4450539;28;658485;-66
2022/05/03 12:59:21;;;;;;;17.30;11.07;;;22.00;38.00;;;;;;4421071;28;657760;-66
2022/05/03 13:02:08;;;;;;;35.73;20.63;;;21.70;37.70;;;;;;4415148;28;658772;-66
2022/05/03 13:04:57;;;;;;;14.40;8.77;;;21.20;39.20;;;;;;4423412;28;659154;-67
2022/05/03 13:07:44;;;;;;;15.10;8.37;;;20.50;38.40;;;;;;4444864;28;658455;-66
2022/05/03 13:10:33;;;;;;;14.80;7.13;;;20.10;39.40;;;;;;4433433;28;658250;-66
2022/05/03 13:13:20;;;;;;;17.63;5.80;;;20.00;39.00;;;;;;4424800;28;658250;-66
2022/05/03 13:16:09;;;;;;;8.93;5.60;;;20.40;40.70;;;;;;4442398;28;658104;-66
2022/05/03 13:18:56;;;;;;;11.37;6.50;;;20.20;39.30;;;;;;4423604;28;656891;-66
2022/05/03 13:21:44;;;;;;;14.03;8.37;;;20.40;39.50;;;;;;4449066;28;658080;-66
2022/05/03 13:24:32;;;;;;;12.60;5.63;;;20.60;39.50;;;;;;4425330;28;657841;-67
2022/05/03 13:27:19;;;;;;;12.50;5.83;;;20.10;38.70;;;;;;4449335;28;657920;-67
2022/05/03 13:30:07;;;;;;;12.57;6.13;;;19.80;40.00;;;;;;4424968;28;658747;-66
2022/05/03 13:32:54;;;;;;;12.57;7.13;;;19.70;39.30;;;;;;4446935;28;657004;-67
2022/05/03 13:41:52;;;;;;;16.97;10.37;;;19.70;41.20;;;;;;4395310;28;659075;-67
2022/05/03 13:44:40;;;;;;;14.07;6.43;;;19.40;41.70;;;;;;4441352;28;658388;-67
2022/05/03 13:47:27;;;;;;;11.77;6.37;;;19.50;43.60;;;;;;4423703;28;658971;-66
2022/05/03 13:50:14;;;;;;;9.23;6.10;;;19.40;43.40;;;;;;4444791;28;657999;-66
2022/05/03 13:53:01;;;;;;;51.97;34.67;;;19.20;42.70;;;;;;4424981;28;656790;-66
2022/05/03 13:55:50;;;;;;;21.80;13.20;;;19.00;41.30;;;;;;4442835;28;660025;-66
2022/05/03 13:58:37;;;;;;;11.30;6.90;;;18.90;42.60;;;;;;4419609;28;660670;-66
2022/05/03 14:01:24;;;;;;;19.73;6.47;;;19.00;43.30;;;;;;4441450;28;658813;-67
2022/05/03 14:04:11;;;;;;;20.60;8.07;;;18.90;43.10;;;;;;4425177;28;657891;-67
2022/05/03 14:06:58;;;;;;;21.63;12.33;;;19.00;43.70;;;;;;4447503;28;658690;-66
2022/05/03 14:09:46;;;;;;;15.17;8.03;;;19.10;44.10;;;;;;4424475;28;658411;-66
2022/05/03 14:12:34;;;;;;;14.57;8.40;;;19.20;41.50;;;;;;4448789;28;657983;-66
2022/05/03 14:15:21;;;;;;;28.13;18.60;;;19.30;42.00;;;;;;4413293;28;657694;-67
2022/05/03 14:18:09;;;;;;;10.27;6.77;;;19.20;43.60;;;;;;4438729;28;658949;-68
2022/05/03 14:20:56;;;;;;;11.93;6.67;;;19.00;43.40;;;;;;4421547;28;657971;-67
2022/05/03 14:23:43;;;;;;;13.27;6.80;;;18.90;44.10;;;;;;4441151;28;657347;-67
2022/05/03 14:26:30;;;;;;;16.50;6.63;;;19.00;44.80;;;;;;4421098;28;657585;-67
2022/05/03 14:29:19;;;;;;;16.20;5.97;;;19.00;45.10;;;;;;4438323;28;659687;-67
2022/05/03 14:32:07;;;;;;;8.07;5.43;;;19.00;43.80;;;;;;4413144;28;658283;-67
2022/05/03 14:34:54;;;;;;;12.13;6.10;;;19.10;43.70;;;;;;4446685;28;656911;-66
2022/05/03 14:37:42;;;;;;;8.60;4.97;;;19.40;45.40;;;;;;4422650;28;658209;-67
2022/05/03 14:40:29;;;;;;;15.93;4.87;;;19.10;46.00;;;;;;4437415;28;657739;-67
2022/05/03 14:43:17;;;;;;;10.93;4.93;;;18.90;46.30;;;;;;4418502;28;657444;-67
2022/05/03 14:46:05;;;;;;;8.63;4.97;;;18.70;46.20;;;;;;4440077;28;657497;-66
2022/05/03 14:48:52;;;;;;;7.83;5.23;;;18.60;46.90;;;;;;4417437;28;658170;-67
2022/05/03 14:51:41;;;;;;;8.93;5.37;;;18.50;47.20;;;;;;4439613;28;657538;-67
2022/05/03 14:54:28;;;;;;;10.47;5.03;;;18.40;47.10;;;;;;4448392;28;656064;-67
2022/05/03 15:03:27;;;;;;;15.23;5.47;;;18.40;47.10;;;;;;4409820;28;657577;-67
2022/05/03 15:06:14;;;;;;;17.03;6.23;;;18.50;47.20;;;;;;4441483;28;657675;-66